Time;durP1;ratioP1;P1;durP2;ratioP2;P2;SDS_P1;SDS_P2;PMS_P1;PMS_P2;Temp;Humidity;BMP_temperature;BMP_pressure;BME280_temperature;BME280_humidity;BME280_pressure;Samples;Min_cycle;Max_cycle;Signal;HPM_P1;HPM_P2
2022/12/26 00:01:59;;;;;;;12.30;2.42;;;9.60;99.90;;;;;;5041971;28;20068;-53
2022/12/26 00:04:26;;;;;;;13.00;2.72;;;9.60;99.90;;;;;;5039670;28;20045;-50
2022/12/26 00:07:12;;;;;;;16.48;2.92;;;9.60;99.90;;;;;;5046569;28;20552;-52
2022/12/26 00:09:39;;;;;;;15.73;2.75;;;9.60;99.90;;;;;;5036582;28;20107;-53
2022/12/26 00:12:06;;;;;;;16.95;2.60;;;9.60;99.90;;;;;;5052822;28;20090;-52
2022/12/26 00:14:32;;;;;;;15.52;2.47;;;9.60;99.90;;;;;;5049057;28;20094;-55
2022/12/26 00:16:59;;;;;;;16.70;2.65;;;9.50;99.90;;;;;;5045799;28;20057;-49
2022/12/26 00:19:26;;;;;;;17.33;2.78;;;9.60;99.90;;;;;;5048776;28;20492;-51
2022/12/26 00:21:53;;;;;;;15.13;2.33;;;9.50;99.90;;;;;;5050094;28;20079;-50
2022/12/26 00:24:19;;;;;;;15.55;2.53;;;9.60;99.90;;;;;;5054549;28;20037;-49
2022/12/26 00:26:46;;;;;;;21.60;3.50;;;9.50;99.90;;;;;;5059445;28;20056;-52
2022/12/26 00:29:13;;;;;;;15.55;2.40;;;9.50;99.90;;;;;;5047056;28;20068;-51
2022/12/26 00:31:40;;;;;;;14.68;2.30;;;9.60;99.90;;;;;;5041626;28;20037;-49
2022/12/26 00:34:06;;;;;;;20.73;4.35;;;9.60;99.90;;;;;;5052803;28;20045;-49
2022/12/26 00:36:33;;;;;;;17.17;3.00;;;9.60;99.90;;;;;;5059518;28;20053;-54
2022/12/26 00:39:00;;;;;;;17.90;3.22;;;9.60;99.90;;;;;;5059632;28;20048;-50
2022/12/26 00:41:27;;;;;;;17.40;2.63;;;9.60;99.90;;;;;;5059741;28;20049;-54
2022/12/26 00:43:54;;;;;;;20.15;3.00;;;9.60;99.90;;;;;;5053123;28;20094;-51
2022/12/26 00:46:22;;;;;;;16.67;2.83;;;9.60;99.90;;;;;;5059458;28;20083;-56
2022/12/26 00:48:49;;;;;;;18.38;2.75;;;9.60;99.90;;;;;;5059728;28;20065;-51
2022/12/26 00:51:16;;;;;;;14.85;2.58;;;9.60;99.90;;;;;;5059519;28;20546;-51
2022/12/26 00:53:43;;;;;;;14.82;2.88;;;9.60;99.90;;;;;;5050289;28;20041;-52
2022/12/26 00:56:10;;;;;;;19.50;3.13;;;9.60;99.90;;;;;;5059337;28;20045;-50
2022/12/26 00:58:37;;;;;;;15.55;2.90;;;9.60;99.90;;;;;;5047050;28;20516;-50
2022/12/26 01:01:04;;;;;;;19.73;3.83;;;9.70;99.90;;;;;;5039482;28;20061;-48
2022/12/26 01:03:31;;;;;;;17.30;2.58;;;9.70;99.90;;;;;;5051934;28;20151;-53
2022/12/26 01:05:58;;;;;;;13.13;2.33;;;9.70;99.90;;;;;;5059299;28;20566;-50
2022/12/26 01:08:24;;;;;;;22.10;2.63;;;9.70;99.90;;;;;;5059174;28;20044;-48
2022/12/26 01:10:51;;;;;;;10.45;2.10;;;9.70;99.90;;;;;;5054255;28;20045;-51
2022/12/26 01:13:18;;;;;;;15.93;2.38;;;9.70;99.90;;;;;;5047906;28;20059;-48
2022/12/26 01:15:44;;;;;;;19.77;2.67;;;9.70;99.90;;;;;;5039442;28;20064;-52
2022/12/26 01:18:11;;;;;;;14.98;2.22;;;9.70;99.90;;;;;;5039716;28;20076;-51
2022/12/26 01:20:38;;;;;;;13.88;2.45;;;9.60;99.90;;;;;;5039295;28;20053;-53
2022/12/26 01:23:05;;;;;;;16.20;2.97;;;9.60;99.90;;;;;;5041330;28;20396;-50
2022/12/26 01:25:31;;;;;;;23.48;3.65;;;9.70;99.90;;;;;;5058017;28;20554;-53
2022/12/26 01:27:58;;;;;;;14.05;2.67;;;9.70;99.90;;;;;;5049485;28;20045;-52
2022/12/26 01:30:25;;;;;;;14.80;2.97;;;9.70;99.90;;;;;;5059271;28;20041;-49
2022/12/26 01:32:52;;;;;;;20.83;2.30;;;9.70;99.90;;;;;;5053976;28;20039;-49
2022/12/26 01:35:18;;;;;;;14.43;2.67;;;9.70;99.90;;;;;;5056183;28;20043;-50
2022/12/26 01:37:45;;;;;;;16.95;2.80;;;9.70;99.90;;;;;;5055873;28;20099;-51
2022/12/26 01:40:12;;;;;;;16.08;2.50;;;9.60;99.90;;;;;;5044286;28;20053;-49
2022/12/26 01:42:38;;;;;;;13.27;2.55;;;9.70;99.90;;;;;;5040519;28;20033;-48
2022/12/26 01:45:05;;;;;;;16.63;3.28;;;9.60;99.90;;;;;;5056026;28;20048;-49
2022/12/26 01:47:32;;;;;;;14.93;2.70;;;9.60;99.90;;;;;;5052784;28;20045;-52
2022/12/26 01:49:59;;;;;;;14.60;2.47;;;9.70;99.90;;;;;;5035678;28;20106;-50
2022/12/26 01:52:25;;;;;;;11.38;3.00;;;9.70;99.90;;;;;;5035890;28;20091;-51
2022/12/26 01:54:52;;;;;;;11.93;2.13;;;9.70;99.90;;;;;;5049209;28;20041;-53
2022/12/26 01:57:19;;;;;;;13.85;2.47;;;9.70;99.90;;;;;;5045977;28;20046;-49
2022/12/26 01:59:46;;;;;;;11.45;2.38;;;9.70;99.90;;;;;;5041528;28;20061;-48
2022/12/26 02:02:12;;;;;;;14.93;3.42;;;9.80;99.90;;;;;;5051206;28;20041;-50
2022/12/26 02:07:25;;;;;;;14.10;2.38;;;9.80;99.90;;;;;;5035225;28;20042;-49
2022/12/26 02:09:51;;;;;;;19.52;2.92;;;9.80;99.90;;;;;;5035028;28;20489;-49
2022/12/26 02:12:18;;;;;;;21.15;2.90;;;9.90;99.90;;;;;;5035723;28;20069;-50
2022/12/26 02:15:03;;;;;;;17.63;2.38;;;9.80;99.90;;;;;;5035724;28;20042;-50
2022/12/26 02:17:30;;;;;;;16.02;2.40;;;9.80;99.90;;;;;;5035570;28;20033;-54
2022/12/26 02:19:58;;;;;;;15.38;2.55;;;9.80;99.90;;;;;;5043394;28;20081;-51
2022/12/26 02:22:24;;;;;;;15.52;2.85;;;9.70;99.90;;;;;;5048477;28;20037;-53
2022/12/26 02:24:51;;;;;;;19.52;2.60;;;9.70;99.90;;;;;;5048328;28;20037;-51
2022/12/26 02:27:18;;;;;;;15.18;2.13;;;9.70;99.90;;;;;;5048057;28;20064;-50
2022/12/26 02:29:44;;;;;;;14.30;2.70;;;9.70;99.90;;;;;;5048821;28;20377;-51
2022/12/26 02:32:11;;;;;;;16.67;2.60;;;9.80;99.90;;;;;;5047103;28;20041;-48
2022/12/26 02:34:38;;;;;;;16.00;2.17;;;9.80;99.90;;;;;;5035244;28;20433;-48
2022/12/26 02:37:05;;;;;;;13.43;3.08;;;9.80;99.90;;;;;;5035120;28;20103;-54
2022/12/26 02:39:32;;;;;;;15.18;2.55;;;9.70;99.90;;;;;;5038062;28;20046;-50
2022/12/26 02:42:11;;;;;;;23.48;2.95;;;9.80;99.90;;;;;;5047160;28;20049;-48
2022/12/26 02:47:23;;;;;;;18.05;2.78;;;9.70;99.90;;;;;;5034760;28;20166;-47
2022/12/26 03:14:39;;;;;;;18.67;2.42;;;10.00;99.90;;;;;;5035268;28;20038;-52
2022/12/26 03:17:18;;;;;;;14.73;3.17;;;10.00;99.90;;;;;;5034047;28;20091;-54
2022/12/26 03:20:00;;;;;;;15.10;2.78;;;10.00;99.90;;;;;;5033766;28;20040;-50
2022/12/26 03:22:29;;;;;;;14.68;2.95;;;10.00;99.90;;;;;;5036696;28;20127;-51
2022/12/26 03:27:41;;;;;;;15.93;3.55;;;10.00;99.90;;;;;;5046891;28;20408;-48
2022/12/26 03:32:56;;;;;;;10.32;2.25;;;10.00;99.90;;;;;;5044017;28;20397;-52
2022/12/26 03:35:23;;;;;;;18.23;2.50;;;10.00;99.90;;;;;;5033555;28;20072;-52
2022/12/26 03:37:49;;;;;;;16.40;2.45;;;10.00;99.90;;;;;;5033514;28;20046;-55
2022/12/26 04:19:24;;;;;;;8.07;1.52;;;9.70;99.90;;;;;;5051053;28;20044;-53
2022/12/26 04:44:10;;;;;;;3.85;0.95;;;9.20;99.90;;;;;;5032952;28;20038;-55
2022/12/26 04:46:37;;;;;;;4.20;0.77;;;9.20;99.90;;;;;;5046029;28;20041;-55
2022/12/26 04:51:49;;;;;;;4.55;0.85;;;9.10;99.90;;;;;;5047545;28;20049;-51
2022/12/26 04:54:16;;;;;;;4.55;0.90;;;9.10;99.90;;;;;;5042299;28;20036;-51
2022/12/26 04:56:43;;;;;;;5.03;1.00;;;9.10;99.90;;;;;;5049158;28;20037;-48
2022/12/26 04:59:11;;;;;;;2.88;0.70;;;9.10;99.90;;;;;;5032795;28;20053;-54
2022/12/26 05:09:54;;;;;;;7.80;0.90;;;9.10;99.90;;;;;;5055936;28;20056;-50
2022/12/26 05:12:21;;;;;;;4.00;0.80;;;9.10;99.90;;;;;;5048833;28;20144;-50
2022/12/26 05:14:47;;;;;;;6.28;1.08;;;9.10;99.90;;;;;;5041019;28;20037;-54
2022/12/26 05:31:02;;;;;;;4.65;0.85;;;9.00;99.90;;;;;;5040292;28;20087;-50
2022/12/26 05:36:14;;;;;;;4.90;0.95;;;9.00;99.90;;;;;;5039324;28;20033;-55
2022/12/26 05:38:40;;;;;;;4.60;0.80;;;9.00;99.90;;;;;;5035872;28;20432;-52
2022/12/26 05:41:07;;;;;;;5.25;1.20;;;9.00;99.90;;;;;;5047837;28;20094;-54
2022/12/26 05:43:34;;;;;;;7.95;1.08;;;9.00;99.90;;;;;;5055603;28;20037;-56
2022/12/26 05:46:00;;;;;;;2.72;0.50;;;8.90;99.90;;;;;;5038389;28;20413;-53
2022/12/26 05:48:27;;;;;;;1.90;0.43;;;8.60;99.90;;;;;;5047449;28;20045;-50
2022/12/26 05:50:54;;;;;;;3.47;0.45;;;8.20;99.90;;;;;;5035538;28;20498;-52
2022/12/26 05:53:21;;;;;;;1.33;0.30;;;8.00;99.90;;;;;;5038564;28;20041;-54
2022/12/26 05:55:47;;;;;;;2.47;0.40;;;7.80;99.90;;;;;;5051744;28;20067;-54
2022/12/26 05:58:14;;;;;;;2.53;0.47;;;7.70;99.90;;;;;;5040304;28;20049;-51
2022/12/26 06:00:41;;;;;;;0.95;0.40;;;7.70;99.90;;;;;;5043979;28;20484;-52
2022/12/26 06:03:08;;;;;;;3.03;0.57;;;7.60;99.90;;;;;;5035355;28;20400;-52
2022/12/26 06:05:35;;;;;;;1.40;0.40;;;7.60;99.90;;;;;;5035339;28;20452;-54
2022/12/26 06:08:01;;;;;;;1.95;0.45;;;7.60;99.90;;;;;;5035060;28;20558;-54
2022/12/26 06:10:28;;;;;;;3.22;0.60;;;7.60;99.90;;;;;;5034821;28;20555;-51
2022/12/26 06:12:56;;;;;;;4.38;0.60;;;7.60;99.90;;;;;;5038463;28;20045;-49
2022/12/26 06:15:23;;;;;;;1.98;0.40;;;7.60;99.90;;;;;;5046059;28;20140;-54
2022/12/26 06:17:50;;;;;;;2.72;0.60;;;7.60;99.90;;;;;;5045211;28;20045;-49
2022/12/26 06:20:16;;;;;;;4.57;0.60;;;7.60;99.90;;;;;;5043233;28;20111;-51
2022/12/26 06:22:43;;;;;;;4.28;0.55;;;7.60;99.90;;;;;;5036733;28;20122;-50
2022/12/26 06:25:10;;;;;;;2.97;0.63;;;7.60;99.90;;;;;;5049520;28;20091;-50
2022/12/26 06:27:37;;;;;;;4.47;0.65;;;7.60;99.90;;;;;;5054849;28;20045;-50
2022/12/26 06:30:03;;;;;;;5.28;0.80;;;7.50;99.90;;;;;;5053539;28;20045;-50
2022/12/26 06:32:30;;;;;;;8.65;0.73;;;7.50;99.90;;;;;;5040920;28;20045;-48
2022/12/26 06:34:57;;;;;;;4.43;0.80;;;7.50;99.90;;;;;;5034588;28;20493;-51
2022/12/26 06:37:24;;;;;;;4.40;0.90;;;7.40;99.90;;;;;;5047711;28;20037;-52
2022/12/26 06:39:50;;;;;;;3.20;0.77;;;7.40;99.90;;;;;;5040479;28;20041;-49
2022/12/26 06:42:17;;;;;;;6.60;1.40;;;7.40;99.90;;;;;;5038455;28;20045;-50
2022/12/26 06:44:44;;;;;;;6.40;0.70;;;7.30;99.90;;;;;;5037592;28;20111;-54
2022/12/26 06:47:11;;;;;;;3.33;0.75;;;7.30;99.90;;;;;;5052849;28;20067;-50
2022/12/26 06:49:37;;;;;;;3.33;0.90;;;7.20;99.90;;;;;;5034740;28;20045;-54
2022/12/26 06:52:05;;;;;;;5.05;0.85;;;7.10;99.90;;;;;;5043700;28;20069;-50
2022/12/26 06:54:31;;;;;;;1.95;0.57;;;7.10;99.90;;;;;;5050105;28;20047;-53
2022/12/26 06:56:58;;;;;;;4.63;0.82;;;7.10;99.90;;;;;;5038819;28;20575;-50
2022/12/26 06:59:25;;;;;;;4.25;0.55;;;7.00;99.90;;;;;;5035444;28;20045;-53
2022/12/26 07:01:52;;;;;;;2.63;0.70;;;7.00;99.90;;;;;;5035061;28;20128;-52
2022/12/26 07:04:19;;;;;;;3.28;0.52;;;7.00;99.90;;;;;;5038917;28;20171;-49
2022/12/26 07:06:45;;;;;;;6.28;0.68;;;6.90;99.90;;;;;;5036676;28;20037;-55
2022/12/26 07:09:13;;;;;;;6.53;0.82;;;6.90;99.90;;;;;;5052795;28;20516;-53
2022/12/26 07:11:40;;;;;;;6.85;1.05;;;6.80;99.90;;;;;;5037571;28;20116;-51
2022/12/26 07:14:07;;;;;;;2.92;0.77;;;6.80;99.90;;;;;;5039491;28;20084;-51
2022/12/26 07:16:33;;;;;;;4.50;0.70;;;6.70;99.90;;;;;;5040837;28;20072;-52
2022/12/26 07:19:00;;;;;;;3.55;0.77;;;6.70;99.90;;;;;;5054099;28;20040;-51
2022/12/26 07:21:27;;;;;;;5.95;0.70;;;6.70;99.90;;;;;;5044945;28;20045;-50
2022/12/26 07:23:56;;;;;;;3.03;0.82;;;6.60;99.90;;;;;;5042107;28;20052;-49
2022/12/26 07:26:22;;;;;;;2.95;0.70;;;6.60;99.90;;;;;;5051441;28;20385;-53
2022/12/26 07:28:49;;;;;;;2.63;0.63;;;6.50;99.90;;;;;;5042260;28;20041;-55
2022/12/26 07:31:16;;;;;;;2.28;0.63;;;6.50;99.90;;;;;;5042471;28;20072;-54
2022/12/26 07:33:43;;;;;;;2.78;0.57;;;6.50;99.90;;;;;;5042774;28;20045;-50
2022/12/26 07:36:09;;;;;;;4.47;0.88;;;6.50;99.90;;;;;;5045948;28;20041;-50
2022/12/26 07:38:36;;;;;;;2.40;0.65;;;6.40;99.90;;;;;;5052946;28;20044;-48
2022/12/26 07:41:56;;;;;;;2.83;0.65;;;6.30;99.90;;;;;;5044550;28;20045;-47
2022/12/26 07:43:49;;;;;;;5.22;0.93;;;6.30;99.90;;;;;;5044644;28;20045;-47
2022/12/26 07:46:16;;;;;;;7.90;1.80;;;6.30;99.90;;;;;;5053099;28;20053;-55
2022/12/26 07:48:43;;;;;;;3.33;0.82;;;6.30;99.90;;;;;;5048385;28;20068;-52
2022/12/26 07:51:10;;;;;;;5.00;0.95;;;6.20;99.90;;;;;;5053448;28;20126;-51
2022/12/26 07:53:36;;;;;;;7.05;1.05;;;6.10;99.90;;;;;;5044261;28;20041;-54
2022/12/26 07:56:03;;;;;;;8.85;1.02;;;6.10;99.90;;;;;;5044878;28;20403;-56
2022/12/26 07:58:30;;;;;;;6.00;1.10;;;6.10;99.90;;;;;;5037048;28;20045;-49
2022/12/26 08:00:57;;;;;;;7.60;1.00;;;6.10;99.90;;;;;;5038337;28;20091;-53
2022/12/26 08:03:23;;;;;;;3.45;0.80;;;6.00;99.90;;;;;;5041960;28;20044;-53
2022/12/26 08:05:50;;;;;;;6.35;1.10;;;6.10;99.90;;;;;;5037344;28;20045;-54
2022/12/26 08:08:17;;;;;;;8.73;0.90;;;6.00;99.90;;;;;;5042181;28;20041;-50
2022/12/26 08:10:44;;;;;;;7.53;1.40;;;6.00;99.90;;;;;;5051831;28;20057;-53
2022/12/26 08:13:10;;;;;;;5.18;1.20;;;6.00;99.90;;;;;;5036223;28;20075;-52
2022/12/26 08:15:37;;;;;;;6.75;1.40;;;5.90;99.90;;;;;;5040499;28;20037;-55
2022/12/26 08:18:04;;;;;;;6.38;1.02;;;5.90;99.90;;;;;;5038273;28;20479;-48
2022/12/26 08:20:30;;;;;;;7.65;1.00;;;5.90;99.90;;;;;;5053280;28;20392;-52
2022/12/26 08:22:57;;;;;;;7.68;0.90;;;5.90;99.90;;;;;;5039822;28;20050;-54
2022/12/26 08:25:29;;;;;;;7.57;1.20;;;5.80;99.90;;;;;;5042336;28;20049;-54
2022/12/26 08:27:56;;;;;;;6.32;1.33;;;5.80;99.90;;;;;;5051429;28;20048;-53
2022/12/26 08:30:22;;;;;;;8.13;1.23;;;5.80;99.90;;;;;;5037636;28;20053;-54
2022/12/26 08:32:49;;;;;;;6.05;1.10;;;5.70;99.90;;;;;;5049394;28;20037;-52
2022/12/26 08:35:16;;;;;;;9.23;1.58;;;5.70;99.90;;;;;;5045107;28;20452;-48
2022/12/26 08:37:42;;;;;;;5.00;1.10;;;5.70;99.90;;;;;;5053178;28;20045;-51
2022/12/26 08:40:09;;;;;;;4.30;0.80;;;5.70;99.90;;;;;;5044647;28;20124;-55
2022/12/26 08:42:38;;;;;;;9.93;1.58;;;5.70;99.90;;;;;;5036793;28;20037;-55
2022/12/26 08:45:25;;;;;;;7.43;0.98;;;5.60;99.90;;;;;;5052872;28;20488;-53
2022/12/26 08:47:51;;;;;;;9.30;1.60;;;5.60;99.90;;;;;;5045979;28;20460;-53
2022/12/26 08:50:18;;;;;;;3.88;0.88;;;5.60;99.90;;;;;;5048168;28;20516;-53
2022/12/26 08:52:45;;;;;;;8.02;0.90;;;5.60;99.90;;;;;;5044674;28;20029;-54
2022/12/26 08:55:12;;;;;;;5.28;1.02;;;5.60;99.90;;;;;;5041621;28;20045;-51
2022/12/26 08:57:39;;;;;;;10.50;1.25;;;5.60;99.90;;;;;;5043322;28;20041;-52
2022/12/26 09:00:06;;;;;;;4.88;1.40;;;5.60;99.90;;;;;;5041407;28;20056;-51
2022/12/26 09:02:33;;;;;;;6.03;1.17;;;5.60;99.90;;;;;;5047130;28;20040;-54
2022/12/26 09:05:00;;;;;;;9.85;1.05;;;5.60;99.90;;;;;;5043261;28;20054;-49
2022/12/26 09:07:27;;;;;;;7.53;1.90;;;5.60;99.90;;;;;;5037071;28;20037;-52
2022/12/26 09:09:54;;;;;;;4.57;1.00;;;5.60;99.90;;;;;;5043059;28;20045;-54
2022/12/26 09:12:21;;;;;;;7.90;1.40;;;5.60;99.90;;;;;;5042084;28;20041;-48
2022/12/26 09:14:47;;;;;;;6.55;1.17;;;5.60;99.90;;;;;;5043055;28;20044;-55
2022/12/26 09:17:15;;;;;;;4.03;1.08;;;5.50;99.90;;;;;;5042353;28;20076;-49
2022/12/26 09:19:43;;;;;;;7.13;1.13;;;5.50;99.90;;;;;;5035916;28;20033;-55
2022/12/26 09:25:00;;;;;;;5.85;0.90;;;5.60;99.90;;;;;;5040116;28;20040;-51
2022/12/26 09:27:27;;;;;;;5.07;0.90;;;5.60;99.90;;;;;;5049685;28;20087;-53
2022/12/26 09:29:54;;;;;;;2.00;0.65;;;5.60;99.90;;;;;;5042754;28;20045;-52
2022/12/26 09:32:21;;;;;;;8.18;1.60;;;5.60;99.90;;;;;;5043031;28;20045;-50
2022/12/26 09:34:48;;;;;;;3.17;0.77;;;5.60;99.90;;;;;;5036916;28;20037;-52
2022/12/26 09:37:15;;;;;;;5.38;1.00;;;5.60;99.90;;;;;;5050262;28;20045;-52
2022/12/26 09:39:42;;;;;;;5.72;0.90;;;5.70;99.90;;;;;;5041088;28;20072;-51
2022/12/26 09:42:09;;;;;;;8.68;1.20;;;5.70;99.90;;;;;;5050694;28;20124;-55
2022/12/26 09:44:35;;;;;;;3.67;1.10;;;5.70;99.90;;;;;;5035944;28;20075;-49
2022/12/26 09:47:02;;;;;;;5.82;1.10;;;5.70;99.90;;;;;;5035697;28;20045;-51
2022/12/26 09:49:29;;;;;;;3.83;1.05;;;5.80;99.90;;;;;;5035947;28;20044;-52
2022/12/26 09:51:56;;;;;;;5.10;1.00;;;5.80;99.90;;;;;;5041893;28;20041;-52
2022/12/26 09:54:22;;;;;;;5.90;1.08;;;5.80;99.90;;;;;;5055692;28;20052;-51
2022/12/26 09:56:49;;;;;;;3.65;0.80;;;5.90;99.90;;;;;;5056613;28;20041;-52
2022/12/26 09:59:28;;;;;;;3.83;0.80;;;6.10;99.90;;;;;;5035828;28;20045;-56
2022/12/26 10:01:55;;;;;;;5.65;0.90;;;6.10;99.90;;;;;;5035666;28;20124;-52
2022/12/26 10:04:22;;;;;;;2.78;1.02;;;6.30;99.90;;;;;;5035642;28;20049;-51
2022/12/26 10:06:55;;;;;;;4.80;0.82;;;6.40;99.90;;;;;;5037528;28;20059;-51
2022/12/26 10:09:22;;;;;;;2.00;0.70;;;6.50;99.90;;;;;;5034013;28;20370;-49
2022/12/26 10:11:48;;;;;;;4.53;1.17;;;6.60;99.90;;;;;;5047797;28;20467;-50
2022/12/26 10:14:15;;;;;;;3.58;0.60;;;6.60;99.90;;;;;;5043944;28;20365;-53
2022/12/26 10:16:47;;;;;;;2.42;0.80;;;6.60;99.90;;;;;;5046099;28;20037;-52
2022/12/26 10:19:14;;;;;;;3.25;0.60;;;6.50;99.90;;;;;;5048442;28;20060;-50
2022/12/26 10:21:40;;;;;;;2.10;0.70;;;6.50;99.90;;;;;;5043877;28;20398;-50
2022/12/26 10:24:08;;;;;;;4.95;1.00;;;6.50;99.90;;;;;;5045174;28;20388;-51
2022/12/26 10:26:34;;;;;;;5.65;0.70;;;6.40;99.90;;;;;;5043907;28;20370;-54
2022/12/26 10:29:01;;;;;;;5.38;0.90;;;6.40;99.90;;;;;;5043690;28;20113;-51
2022/12/26 10:31:28;;;;;;;5.20;1.08;;;6.40;99.90;;;;;;5044195;28;20034;-49
2022/12/26 10:33:55;;;;;;;4.88;0.98;;;6.40;99.90;;;;;;5040024;28;20037;-50
2022/12/26 10:36:21;;;;;;;4.47;0.80;;;6.40;99.90;;;;;;5034808;28;20037;-53
2022/12/26 10:38:48;;;;;;;2.97;0.80;;;6.40;99.90;;;;;;5037345;28;20041;-50
2022/12/26 10:41:15;;;;;;;4.55;0.70;;;6.40;99.90;;;;;;5042816;28;20117;-49
2022/12/26 10:43:43;;;;;;;4.53;0.80;;;6.40;99.90;;;;;;5044658;28;20061;-52
2022/12/26 10:46:10;;;;;;;8.13;0.90;;;6.40;99.90;;;;;;5034625;28;20133;-46
2022/12/26 10:48:37;;;;;;;3.30;0.75;;;6.40;99.90;;;;;;5034781;28;20037;-53
2022/12/26 10:51:04;;;;;;;5.55;0.93;;;6.40;99.90;;;;;;5048515;28;20102;-51
2022/12/26 10:53:31;;;;;;;5.40;0.90;;;6.40;99.90;;;;;;5054564;28;20087;-50
2022/12/26 10:55:58;;;;;;;4.50;0.98;;;6.40;99.90;;;;;;5048173;28;20038;-48
2022/12/26 10:58:24;;;;;;;5.28;0.90;;;6.40;99.90;;;;;;5040686;28;20444;-48
2022/12/26 11:00:52;;;;;;;4.82;0.82;;;6.50;99.90;;;;;;5037978;28;20132;-49
2022/12/26 11:03:19;;;;;;;4.35;0.95;;;6.50;99.90;;;;;;5037998;28;20045;-50
2022/12/26 11:05:46;;;;;;;8.23;1.20;;;6.50;99.90;;;;;;5034331;28;20037;-52
2022/12/26 11:08:33;;;;;;;4.88;1.20;;;6.50;99.90;;;;;;5034323;28;20056;-50
2022/12/26 11:11:08;;;;;;;;;;;6.60;99.90;;;;;;5034817;28;20053;-49
2022/12/26 11:13:35;;;;;;;11.55;1.58;;;6.60;99.90;;;;;;5034397;28;19975;-49
2022/12/26 11:16:02;;;;;;;7.10;1.20;;;6.60;99.90;;;;;;5041540;28;20040;-51
2022/12/26 11:18:29;;;;;;;8.07;1.90;;;6.60;99.90;;;;;;5037264;28;20049;-51
2022/12/26 11:20:56;;;;;;;7.40;1.30;;;6.60;99.90;;;;;;5038671;28;20094;-52
2022/12/26 11:23:23;;;;;;;5.38;1.20;;;6.60;99.90;;;;;;5053662;28;20102;-50
2022/12/26 11:25:49;;;;;;;8.32;1.20;;;6.60;99.90;;;;;;5040843;28;20442;-46
2022/12/26 11:28:16;;;;;;;9.80;1.30;;;6.60;99.90;;;;;;5042908;28;20454;-50
2022/12/26 11:30:43;;;;;;;7.47;1.35;;;6.60;99.90;;;;;;5031618;28;20083;-51
2022/12/26 11:33:10;;;;;;;6.30;1.20;;;6.70;99.90;;;;;;5031583;28;20111;-54
2022/12/26 11:35:40;;;;;;;5.28;1.10;;;6.70;99.90;;;;;;5032260;28;20048;-48
2022/12/26 11:38:07;;;;;;;7.05;1.55;;;6.70;99.90;;;;;;5031880;28;20516;-54
2022/12/26 11:40:34;;;;;;;7.03;1.42;;;6.70;99.90;;;;;;5044893;28;20037;-52
2022/12/26 11:43:00;;;;;;;7.20;1.60;;;6.80;99.90;;;;;;5052159;28;20032;-52
2022/12/26 11:45:27;;;;;;;7.60;1.45;;;6.70;99.90;;;;;;5051423;28;20048;-50
2022/12/26 11:47:59;;;;;;;4.97;1.20;;;6.80;99.90;;;;;;5053790;28;20396;-51
2022/12/26 11:50:26;;;;;;;9.20;1.90;;;6.80;99.90;;;;;;5053560;28;20033;-52
2022/12/26 11:52:54;;;;;;;6.07;1.35;;;6.80;99.90;;;;;;5052263;28;20132;-51
2022/12/26 11:55:21;;;;;;;7.00;2.42;;;6.90;99.90;;;;;;5053027;28;20040;-49
2022/12/26 11:57:47;;;;;;;6.68;1.30;;;6.90;99.90;;;;;;5053644;28;20488;-48
2022/12/26 12:00:21;;;;;;;5.97;1.20;;;6.90;99.90;;;;;;5053377;28;20072;-48
2022/12/26 12:02:47;;;;;;;7.80;1.58;;;6.90;99.90;;;;;;5039586;28;20072;-49
2022/12/26 12:05:14;;;;;;;6.60;1.23;;;6.90;99.90;;;;;;5037911;28;20044;-49
2022/12/26 12:07:41;;;;;;;10.38;1.35;;;6.90;99.90;;;;;;5041557;28;20078;-47
2022/12/26 12:10:08;;;;;;;9.32;1.80;;;6.90;99.90;;;;;;5033248;28;20065;-47
2022/12/26 12:12:37;;;;;;;5.97;1.35;;;6.90;99.90;;;;;;5036410;28;20119;-49
2022/12/26 12:15:03;;;;;;;7.22;1.45;;;6.90;99.90;;;;;;5039326;28;20068;-49
2022/12/26 12:17:30;;;;;;;6.80;1.48;;;6.90;99.90;;;;;;5033543;28;20124;-48
2022/12/26 12:19:57;;;;;;;6.13;1.42;;;6.90;99.90;;;;;;5037576;28;20381;-50
2022/12/26 12:22:24;;;;;;;5.45;1.10;;;6.90;99.90;;;;;;5040974;28;20036;-53
2022/12/26 12:24:50;;;;;;;6.32;1.30;;;7.00;99.90;;;;;;5039714;28;20535;-47
2022/12/26 12:27:17;;;;;;;8.43;1.35;;;7.00;99.90;;;;;;5036607;28;20038;-53
2022/12/26 12:29:44;;;;;;;8.30;1.40;;;7.00;99.90;;;;;;5033928;28;20041;-51
2022/12/26 12:32:11;;;;;;;8.18;1.40;;;7.00;99.90;;;;;;5043609;28;20124;-52
2022/12/26 12:34:38;;;;;;;10.82;1.67;;;7.00;99.90;;;;;;5047592;28;20465;-48
2022/12/26 12:37:04;;;;;;;8.27;1.77;;;7.00;99.90;;;;;;5044819;28;20499;-52
2022/12/26 12:39:31;;;;;;;4.75;1.20;;;7.00;99.90;;;;;;5044983;28;20069;-55
2022/12/26 12:41:58;;;;;;;8.27;1.30;;;7.00;99.90;;;;;;5034107;28;20045;-51
2022/12/26 12:44:25;;;;;;;8.85;1.30;;;7.10;99.90;;;;;;5035978;28;20428;-53
2022/12/26 12:46:52;;;;;;;5.32;1.30;;;7.10;99.90;;;;;;5040692;28;20047;-51
2022/12/26 12:49:19;;;;;;;5.93;1.27;;;7.10;99.90;;;;;;5038420;28;20030;-52
2022/12/26 12:51:45;;;;;;;9.38;1.38;;;7.10;99.90;;;;;;5039646;28;20534;-49
2022/12/26 12:54:12;;;;;;;6.30;1.42;;;7.10;99.90;;;;;;5039507;28;20364;-55
2022/12/26 12:56:39;;;;;;;6.68;1.40;;;7.10;99.90;;;;;;5053077;28;20045;-47
2022/12/26 12:59:08;;;;;;;8.27;1.40;;;7.10;99.90;;;;;;5052977;28;20041;-50
2022/12/26 13:01:35;;;;;;;8.82;1.70;;;7.10;99.90;;;;;;5051606;28;20045;-54
2022/12/26 13:04:01;;;;;;;7.22;1.40;;;7.10;99.90;;;;;;5053008;28;20049;-54
2022/12/26 13:06:28;;;;;;;6.47;1.30;;;7.10;99.90;;;;;;5049642;28;20484;-55
2022/12/26 13:08:55;;;;;;;9.48;2.53;;;7.10;99.90;;;;;;5032882;28;20049;-52
2022/12/26 13:11:22;;;;;;;8.88;1.80;;;7.20;99.90;;;;;;5032396;28;20104;-51
2022/12/26 13:13:49;;;;;;;6.40;1.60;;;7.20;99.90;;;;;;5031316;28;20046;-49
2022/12/26 13:16:19;;;;;;;6.32;1.40;;;7.20;99.90;;;;;;5032681;28;20095;-52
2022/12/26 13:18:46;;;;;;;6.22;1.83;;;7.20;99.90;;;;;;5032478;28;20125;-50
2022/12/26 13:21:12;;;;;;;6.65;1.30;;;7.20;99.90;;;;;;5032588;28;20045;-48
2022/12/26 13:26:25;;;;;;;6.70;1.60;;;7.20;99.90;;;;;;5052339;28;20446;-50
2022/12/26 13:28:52;;;;;;;8.32;1.73;;;7.20;99.90;;;;;;5049119;28;20041;-53
2022/12/26 13:31:19;;;;;;;5.95;1.30;;;7.20;99.90;;;;;;5036203;28;20045;-55
2022/12/26 13:33:46;;;;;;;6.03;1.70;;;7.20;99.90;;;;;;5048298;28;20048;-52
2022/12/26 13:36:12;;;;;;;5.28;1.80;;;7.20;99.90;;;;;;5056132;28;20063;-53
2022/12/26 13:38:39;;;;;;;6.03;1.25;;;7.20;99.90;;;;;;5056329;28;20037;-49
2022/12/26 13:43:54;;;;;;;4.57;1.30;;;7.10;99.90;;;;;;5050349;28;20048;-52
2022/12/26 13:46:21;;;;;;;9.52;3.17;;;7.10;99.90;;;;;;5048493;28;20088;-49
2022/12/26 13:48:48;;;;;;;9.10;2.15;;;7.10;99.90;;;;;;5036046;28;20500;-49
2022/12/26 13:51:15;;;;;;;7.57;2.40;;;7.10;99.90;;;;;;5035614;28;20041;-47
2022/12/26 13:53:41;;;;;;;8.88;1.80;;;7.10;99.90;;;;;;5041554;28;20110;-53
2022/12/26 13:56:08;;;;;;;7.38;2.88;;;7.10;99.90;;;;;;5050202;28;20044;-54
2022/12/26 13:58:38;;;;;;;6.78;1.90;;;7.20;99.90;;;;;;5055737;28;20047;-56
2022/12/26 14:01:05;;;;;;;10.43;1.60;;;7.20;99.90;;;;;;5047810;28;20067;-54
2022/12/26 14:03:32;;;;;;;5.28;1.05;;;7.20;99.90;;;;;;5035274;28;20096;-51
2022/12/26 14:05:59;;;;;;;7.03;1.35;;;7.20;99.90;;;;;;5035204;28;20382;-49
2022/12/26 14:08:27;;;;;;;4.55;1.20;;;7.20;99.90;;;;;;5035686;28;20044;-46
2022/12/26 14:10:53;;;;;;;4.18;1.20;;;7.20;99.90;;;;;;5035114;28;20500;-49
2022/12/26 14:13:20;;;;;;;5.30;1.25;;;7.20;99.90;;;;;;5035469;28;20049;-50
2022/12/26 14:15:47;;;;;;;4.53;1.45;;;7.20;99.90;;;;;;5048280;28;20040;-48
2022/12/26 14:18:14;;;;;;;5.60;1.60;;;7.20;99.90;;;;;;5055471;28;20052;-54
2022/12/26 14:20:40;;;;;;;7.93;1.75;;;7.10;99.90;;;;;;5054001;28;20214;-55
2022/12/26 14:23:07;;;;;;;7.30;1.65;;;7.10;99.90;;;;;;5055296;28;20068;-48
2022/12/26 14:25:34;;;;;;;4.15;1.50;;;7.10;99.90;;;;;;5055228;28;20450;-55
2022/12/26 14:28:01;;;;;;;5.95;1.30;;;7.10;99.90;;;;;;5054952;28;20112;-53
2022/12/26 14:30:27;;;;;;;12.88;2.35;;;7.00;99.90;;;;;;5055276;28;20159;-49
2022/12/26 14:32:54;;;;;;;10.02;2.22;;;7.00;99.90;;;;;;5055427;28;20048;-50
2022/12/26 14:35:24;;;;;;;9.82;1.75;;;7.00;99.90;;;;;;5043508;28;20046;-54
2022/12/26 14:37:51;;;;;;;7.85;1.55;;;7.00;99.90;;;;;;5035328;28;20042;-53
2022/12/26 14:40:17;;;;;;;8.75;1.83;;;6.90;99.90;;;;;;5034632;28;20080;-50
2022/12/26 14:45:29;;;;;;;5.30;1.58;;;6.90;99.90;;;;;;5039149;28;20046;-51
2022/12/26 14:47:56;;;;;;;12.85;2.20;;;6.90;99.90;;;;;;5034675;28;20041;-51
2022/12/26 14:50:23;;;;;;;6.90;1.52;;;6.90;99.90;;;;;;5034775;28;20124;-55
2022/12/26 14:52:50;;;;;;;12.40;1.67;;;6.90;99.90;;;;;;5034685;28;20103;-56
2022/12/26 14:55:16;;;;;;;8.63;2.00;;;6.90;99.90;;;;;;5051517;28;20049;-51
2022/12/26 14:57:44;;;;;;;6.47;1.85;;;6.80;99.90;;;;;;5052954;28;20048;-50
2022/12/26 15:00:11;;;;;;;8.65;2.05;;;6.80;99.90;;;;;;5054395;28;20503;-53
2022/12/26 15:02:37;;;;;;;7.10;1.77;;;6.80;99.90;;;;;;5039126;28;20116;-51
2022/12/26 15:05:04;;;;;;;4.65;1.30;;;6.80;99.90;;;;;;5034417;28;20445;-53
2022/12/26 15:07:31;;;;;;;6.50;1.45;;;6.70;99.90;;;;;;5049837;28;20443;-50
2022/12/26 15:09:58;;;;;;;9.80;1.70;;;6.70;99.90;;;;;;5054021;28;20084;-48
2022/12/26 15:12:25;;;;;;;6.90;1.40;;;6.70;99.90;;;;;;5054434;28;20052;-46